Time;durP1;ratioP1;P1;durP2;ratioP2;P2;SDS_P1;SDS_P2;PMS_P1;PMS_P2;Temp;Humidity;BMP_temperature;BMP_pressure;BME280_temperature;BME280_humidity;BME280_pressure;Samples;Min_cycle;Max_cycle;Signal;HPM_P1;HPM_P2
2021/04/12 00:00:01;;;;;;;5.30;2.10;;;;;;;15.90;52.14;100666.69;5079508;28;20049;-72
2021/04/12 00:02:35;;;;;;;4.50;1.90;;;;;;;15.88;52.12;100675.44;5080814;28;20039;-72
2021/04/12 00:05:25;;;;;;;6.53;2.60;;;;;;;15.81;52.16;100671.38;5087020;28;20048;-72
2021/04/12 00:08:28;;;;;;;3.58;1.92;;;;;;;15.80;52.53;100684.63;5072563;28;20052;-69
2021/04/12 00:11:23;;;;;;;4.37;1.67;;;;;;;15.77;52.71;100682.44;5075351;28;20052;-70
2021/04/12 00:14:11;;;;;;;5.70;1.73;;;;;;;15.70;52.95;100684.81;5074577;28;20076;-67
2021/04/12 00:17:02;;;;;;;4.83;1.80;;;;;;;15.63;53.39;100675.94;5084854;28;20437;-67
2021/04/12 00:19:39;;;;;;;3.93;2.13;;;;;;;15.66;53.31;100672.53;5075165;28;20455;-68
2021/04/12 00:22:09;;;;;;;4.50;1.70;;;;;;;15.66;53.48;100683.78;5078183;28;20052;-67
2021/04/12 00:24:54;;;;;;;1.00;1.00;;;;;;;15.64;53.30;100674.78;5076798;28;20048;-69
2021/04/12 00:27:24;;;;;;;4.27;1.30;;;;;;;15.63;53.38;100676.75;5076371;28;20044;-67
2021/04/12 00:29:56;;;;;;;1.80;0.90;;;;;;;15.68;53.16;100670.22;5077937;28;20507;-70
2021/04/12 00:32:32;;;;;;;2.60;1.50;;;;;;;15.72;53.16;100671.25;5077572;28;20055;-69
2021/04/12 00:35:04;;;;;;;1.00;0.90;;;;;;;15.74;53.00;100668.16;5072900;28;20404;-69
2021/04/12 00:37:38;;;;;;;2.00;0.97;;;;;;;15.71;53.17;100668.75;5078436;28;20048;-68
2021/04/12 00:40:24;;;;;;;0.67;0.63;;;;;;;15.78;53.06;100681.28;5078304;28;20044;-68
2021/04/12 00:43:05;;;;;;;3.40;1.67;;;;;;;15.77;53.13;100688.06;5081073;28;21197;-69
2021/04/12 00:45:50;;;;;;;2.60;0.80;;;;;;;15.83;52.90;100681.19;5075732;28;20048;-70
2021/04/12 00:48:26;;;;;;;1.67;0.60;;;;;;;15.87;52.67;100685.03;5080771;28;20044;-69
2021/04/12 00:50:53;;;;;;;0.80;0.70;;;;;;;15.88;52.73;100685.88;5075609;28;20048;-72
2021/04/12 00:53:37;;;;;;;1.00;0.80;;;;;;;15.96;52.38;100687.94;5078126;28;20501;-70
2021/04/12 00:56:10;;;;;;;1.90;0.90;;;;;;;15.85;52.60;100666.78;5079368;28;20054;-64
2021/04/12 00:58:49;;;;;;;2.13;1.17;;;;;;;15.94;52.47;100683.78;5075541;28;20050;-66
2021/04/12 01:01:23;;;;;;;0.53;0.50;;;;;;;15.81;52.52;100680.66;5074767;28;20055;-67
2021/04/12 01:04:26;;;;;;;0.10;0.10;;;;;;;15.90;52.17;100688.34;5076864;28;20036;-69
2021/04/12 01:07:09;;;;;;;0.20;0.20;;;;;;;15.75;52.37;100684.72;5074240;28;20048;-70
2021/04/12 01:10:04;;;;;;;0.77;0.73;;;;;;;15.82;52.31;100692.75;5075645;28;20050;-68
2021/04/12 01:12:39;;;;;;;0.93;0.67;;;;;;;15.80;52.01;100695.88;5079222;28;20045;-68
2021/04/12 01:15:23;;;;;;;0.60;0.50;;;;;;;15.94;51.57;100690.25;5077660;28;20069;-67
2021/04/12 01:18:17;;;;;;;0.73;0.53;;;;;;;15.94;51.44;100692.25;5079067;28;20044;-71
2021/04/12 01:21:03;;;;;;;0.60;0.53;;;;;;;15.95;51.29;100686.28;5076258;28;20052;-72
2021/04/12 01:24:00;;;;;;;0.10;0.10;;;;;;;15.86;51.52;100688.16;5074037;28;20439;-70
2021/04/12 01:26:43;;;;;;;0.70;0.40;;;;;;;15.85;51.42;100686.50;5079292;28;20040;-72
2021/04/12 01:29:12;;;;;;;0.30;0.30;;;;;;;15.94;51.11;100684.63;5078251;28;20465;-73
2021/04/12 01:31:48;;;;;;;2.83;0.40;;;;;;;15.86;51.12;100679.69;5077516;28;20499;-72
2021/04/12 01:34:33;;;;;;;0.53;0.37;;;;;;;15.70;51.21;100690.47;5073879;28;20056;-73
2021/04/12 01:37:21;;;;;;;0.20;0.20;;;;;;;15.64;51.30;100692.50;5072153;28;20090;-72
2021/04/12 01:40:04;;;;;;;0.73;0.57;;;;;;;15.68;51.12;100698.38;5083436;28;20048;-68
2021/04/12 01:42:58;;;;;;;0.30;0.30;;;;;;;15.53;51.12;100695.84;5073319;28;20043;-66
2021/04/12 01:45:45;;;;;;;0.20;0.20;;;;;;;15.55;51.08;100713.22;5079584;28;20055;-69
2021/04/12 01:48:26;;;;;;;0.40;0.40;;;;;;;15.67;51.17;100691.06;5075767;28;20040;-67
2021/04/12 01:51:08;;;;;;;0.20;0.20;;;;;;;15.70;50.83;100706.53;5071671;28;20051;-72
2021/04/12 01:54:18;;;;;;;0.20;0.20;;;;;;;15.48;51.22;100705.19;5072659;28;20051;-71
2021/04/12 01:56:48;;;;;;;0.73;0.30;;;;;;;15.57;51.11;100699.69;5070467;28;20051;-75
2021/04/12 01:59:51;;;;;;;0.57;0.47;;;;;;;15.47;51.25;100708.31;5080802;28;20051;-76
2021/04/12 02:02:46;;;;;;;1.30;0.30;;;;;;;15.39;51.67;100701.44;5084557;28;20058;-76
2021/04/12 02:05:49;;;;;;;1.00;0.50;;;;;;;15.30;51.38;100697.66;5076980;28;20048;-80
2021/04/12 02:08:29;;;;;;;0.40;0.40;;;;;;;15.19;51.58;100696.19;5079774;28;20045;-80
2021/04/12 02:11:15;;;;;;;0.10;0.10;;;;;;;15.23;51.18;100708.47;5080244;28;20158;-79
2021/04/12 02:13:41;;;;;;;0.23;0.23;;;;;;;15.22;51.42;100715.25;5080733;28;20059;-79
2021/04/12 02:16:08;;;;;;;0.20;0.20;;;;;;;15.12;51.47;100711.47;5080787;28;20044;-80
2021/04/12 02:19:11;;;;;;;0.30;0.30;;;;;;;15.02;51.49;100719.25;5077385;28;20051;-79
2021/04/12 02:22:15;;;;;;;0.30;0.30;;;;;;;14.89;51.61;100723.66;5079053;28;20052;-66
2021/04/12 02:25:37;;;;;;;0.33;0.20;;;;;;;14.96;51.21;100709.22;5077323;28;20059;-63
2021/04/12 02:28:25;;;;;;;0.30;0.30;;;;;;;15.00;51.15;100715.88;5049451;28;20044;-63
2021/04/12 02:31:23;;;;;;;0.20;0.20;;;;;;;14.87;51.00;100723.13;5080347;28;20071;-66
2021/04/12 02:34:01;;;;;;;0.10;0.10;;;;;;;14.65;51.06;100713.31;5062942;28;20485;-64
2021/04/12 02:37:04;;;;;;;0.20;0.20;;;;;;;14.85;50.65;100722.59;5078774;28;20820;-65
2021/04/12 02:39:59;;;;;;;0.30;0.30;;;;;;;14.74;50.57;100724.75;5086008;28;20536;-64
2021/04/12 02:42:40;;;;;;;0.20;0.20;;;;;;;14.53;50.62;100720.53;5079247;28;20055;-65
2021/04/12 02:45:06;;;;;;;2.73;0.40;;;;;;;14.49;50.62;100747.53;5077339;28;20051;-65
2021/04/12 02:47:32;;;;;;;0.10;0.10;;;;;;;14.43;50.60;100750.44;5079628;28;20434;-68
2021/04/12 02:50:18;;;;;;;0.10;0.10;;;;;;;14.45;50.31;100741.69;5075072;28;20135;-64
2021/04/12 02:53:17;;;;;;;0.30;0.30;;;;;;;14.41;50.23;100752.69;5077268;28;20048;-66
2021/04/12 02:56:07;;;;;;;0.28;0.28;;;;;;;14.54;49.97;100758.75;5075600;28;20052;-68
2021/04/12 02:59:11;;;;;;;1.83;0.37;;;;;;;14.29;49.70;100720.56;5078413;28;20044;-66
2021/04/12 03:02:09;;;;;;;0.47;0.47;;;;;;;14.44;49.65;100743.66;5081118;28;20397;-69
2021/04/12 03:04:35;;;;;;;0.60;0.40;;;;;;;14.32;49.56;100745.25;5079181;28;20404;-67
2021/04/12 03:07:17;;;;;;;0.97;0.70;;;;;;;14.33;49.48;100750.56;5075848;28;20044;-66
2021/04/12 03:09:54;;;;;;;0.53;0.50;;;;;;;14.31;49.21;100730.38;5074537;28;20044;-66
2021/04/12 03:12:51;;;;;;;0.37;0.37;;;;;;;14.45;49.07;100750.94;5082688;28;20073;-77
2021/04/12 03:15:51;;;;;;;0.20;0.20;;;;;;;14.04;49.14;100730.16;5076644;28;20452;-80
2021/04/12 03:18:27;;;;;;;0.43;0.43;;;;;;;13.86;49.13;100748.63;5084858;28;20044;-82
2021/04/12 03:21:28;;;;;;;0.30;0.30;;;;;;;13.88;48.95;100735.97;5075016;28;20051;-83
2021/04/12 03:24:00;;;;;;;0.13;0.13;;;;;;;13.88;49.13;100724.75;5070126;28;20044;-70
2021/04/12 03:26:56;;;;;;;0.20;0.20;;;;;;;13.93;48.65;100732.25;5085950;28;20048;-72
2021/04/12 03:29:53;;;;;;;0.27;0.27;;;;;;;13.80;48.64;100721.72;5078621;28;20055;-63
2021/04/12 03:32:50;;;;;;;0.33;0.30;;;;;;;13.86;48.53;100735.41;5077206;28;20052;-64
2021/04/12 03:35:50;;;;;;;0.30;0.30;;;;;;;13.74;48.20;100721.81;5073688;28;20499;-63
2021/04/12 03:38:36;;;;;;;0.40;0.40;;;;;;;13.81;47.93;100717.78;5073886;28;22840;-65
2021/04/12 03:41:08;;;;;;;0.50;0.43;;;;;;;13.62;48.02;100731.75;5082107;28;20054;-68
2021/04/12 03:43:37;;;;;;;0.60;0.30;;;;;;;13.78;47.67;100716.44;5073289;28;20047;-67
2021/04/12 03:46:40;;;;;;;0.20;0.20;;;;;;;13.60;47.47;100734.00;5083542;28;20973;-66
2021/04/12 03:49:37;;;;;;;0.80;0.47;;;;;;;13.68;47.26;100716.53;5083581;28;20054;-65
2021/04/12 03:52:13;;;;;;;0.73;0.40;;;;;;;13.64;47.05;100724.72;5075818;28;20542;-65
2021/04/12 03:55:00;;;;;;;0.53;0.50;;;;;;;13.65;47.10;100717.97;5078687;28;20040;-64
2021/04/12 03:57:48;;;;;;;0.23;0.23;;;;;;;13.76;46.80;100715.88;5079827;28;20036;-64
2021/04/12 04:00:26;;;;;;;1.67;0.40;;;;;;;13.52;46.72;100738.31;5072380;28;20048;-64
2021/04/12 04:03:30;;;;;;;0.40;0.30;;;;;;;13.44;46.73;100706.13;5081533;28;20044;-65
2021/04/12 04:06:14;;;;;;;1.03;0.30;;;;;;;13.45;46.60;100727.44;5079586;28;20044;-65
2021/04/12 04:09:00;;;;;;;0.33;0.27;;;;;;;13.39;46.20;100722.16;5082980;28;20477;-66
2021/04/12 04:11:43;;;;;;;0.27;0.27;;;;;;;13.44;46.23;100725.75;5073906;28;20060;-65
2021/04/12 04:14:18;;;;;;;0.30;0.30;;;;;;;13.38;45.92;100738.16;5072984;28;20489;-66
2021/04/12 04:16:55;;;;;;;0.37;0.37;;;;;;;13.37;45.96;100719.66;5077344;28;20045;-76
2021/04/12 04:20:00;;;;;;;1.20;0.30;;;;;;;13.30;45.85;100721.13;5076874;28;20040;-68
2021/04/12 04:22:53;;;;;;;0.30;0.30;;;;;;;13.21;46.01;100735.75;5074171;28;20040;-69
2021/04/12 04:25:43;;;;;;;0.30;0.30;;;;;;;13.33;45.41;100728.94;5081713;28;20052;-77
2021/04/12 04:28:42;;;;;;;0.20;0.20;;;;;;;13.30;45.58;100724.78;5076208;28;20060;-65
2021/04/12 04:31:29;;;;;;;0.73;0.30;;;;;;;13.40;45.30;100726.63;5075706;28;20044;-76
2021/04/12 04:34:24;;;;;;;5.00;0.50;;;;;;;13.33;45.04;100740.16;5077781;28;20131;-74
2021/04/12 04:37:10;;;;;;;0.47;0.40;;;;;;;13.31;44.83;100725.63;5074465;28;20055;-72
2021/04/12 04:40:09;;;;;;;0.30;0.20;;;;;;;13.20;44.80;100745.31;5078890;28;20519;-71
2021/04/12 04:42:54;;;;;;;0.83;0.40;;;;;;;13.41;44.62;100747.97;5075294;28;20127;-75
2021/04/12 04:45:46;;;;;;;1.20;0.33;;;;;;;13.36;44.65;100734.81;5078235;28;20044;-74
2021/04/12 04:48:42;;;;;;;1.80;0.47;;;;;;;13.40;44.25;100738.72;5077711;28;20527;-68
2021/04/12 04:51:27;;;;;;;1.10;0.50;;;;;;;13.22;43.78;100751.44;5079407;28;20151;-75
2021/04/12 04:54:27;;;;;;;3.73;0.50;;;;;;;12.96;43.88;100739.63;5080056;28;20086;-70
2021/04/12 04:57:32;;;;;;;1.17;0.70;;;;;;;13.18;43.90;100755.97;5076730;28;20048;-70
2021/04/12 05:00:40;;;;;;;0.80;0.40;;;;;;;12.96;44.06;100762.03;5077827;28;20504;-70
2021/04/12 05:03:30;;;;;;;0.30;0.30;;;;;;;13.18;43.89;100755.97;5073811;28;20488;-71
2021/04/12 05:06:29;;;;;;;0.68;0.50;;;;;;;13.16;43.95;100748.97;5072899;28;20047;-71
2021/04/12 05:09:29;;;;;;;0.57;0.40;;;;;;;13.28;43.81;100755.09;5078975;28;20056;-68
2021/04/12 05:12:17;;;;;;;0.43;0.32;;;;;;;13.09;43.81;100756.88;5076227;28;20423;-68
2021/04/12 05:15:21;;;;;;;0.20;0.20;;;;;;;13.09;43.81;100759.69;5078155;28;20051;-73
2021/04/12 05:18:09;;;;;;;0.27;0.27;;;;;;;12.96;43.99;100770.44;5080890;28;20051;-69
2021/04/12 05:21:13;;;;;;;1.73;0.70;;;;;;;13.11;43.78;100763.06;5075418;28;20408;-66
2021/04/12 05:23:50;;;;;;;0.83;0.20;;;;;;;12.86;43.68;100787.34;5071226;28;20036;-69
2021/04/12 05:26:29;;;;;;;0.30;0.30;;;;;;;12.86;43.82;100780.91;5073837;28;20054;-65
2021/04/12 05:29:14;;;;;;;0.57;0.50;;;;;;;13.14;43.28;100770.88;5078380;28;20432;-63
2021/04/12 05:32:03;;;;;;;0.23;0.23;;;;;;;13.08;43.46;100766.44;5075904;28;20524;-66
2021/04/12 05:34:38;;;;;;;1.93;0.40;;;;;;;13.01;43.40;100778.81;5075836;28;20048;-65
2021/04/12 05:37:43;;;;;;;0.47;0.40;;;;;;;12.75;43.63;100785.69;5074324;28;20049;-66
2021/04/12 05:40:32;;;;;;;0.30;0.30;;;;;;;12.71;43.56;100779.00;5073535;28;20040;-66
2021/04/12 05:43:04;;;;;;;1.23;0.70;;;;;;;12.77;43.52;100780.66;5077287;28;20044;-65
2021/04/12 05:45:40;;;;;;;1.40;0.93;;;;;;;12.82;43.42;100772.25;5077927;28;20050;-66
2021/04/12 05:48:41;;;;;;;0.23;0.23;;;;;;;12.75;43.59;100783.75;5078932;28;20056;-64
2021/04/12 05:51:29;;;;;;;0.33;0.30;;;;;;;12.77;43.49;100775.88;5076743;28;20132;-64
2021/04/12 05:54:05;;;;;;;0.20;0.20;;;;;;;12.75;43.18;100785.69;5074043;28;20048;-65
2021/04/12 05:56:55;;;;;;;0.20;0.20;;;;;;;12.70;43.35;100774.53;5072669;28;20375;-66
2021/04/12 05:59:52;;;;;;;0.88;0.30;;;;;;;12.56;43.42;100786.38;5077983;28;20135;-64
2021/04/12 06:02:35;;;;;;;4.23;0.53;;;;;;;12.81;43.02;100791.00;5075216;28;20051;-66
2021/04/12 06:05:14;;;;;;;0.67;0.37;;;;;;;12.95;42.70;100779.97;5074375;28;20044;-68
2021/04/12 06:08:02;;;;;;;0.97;0.57;;;;;;;12.99;42.91;100789.50;5076088;28;20568;-67
2021/04/12 06:11:00;;;;;;;0.57;0.50;;;;;;;13.16;42.65;100785.44;5081311;28;20127;-65
2021/04/12 06:13:55;;;;;;;0.90;0.50;;;;;;;12.94;42.69;100809.13;5080102;28;20048;-75
2021/04/12 06:16:42;;;;;;;0.40;0.40;;;;;;;12.98;42.66;100779.38;5077178;28;20044;-71
2021/04/12 06:19:33;;;;;;;0.53;0.40;;;;;;;12.89;42.25;100814.78;5076857;28;20045;-74
2021/04/12 06:22:24;;;;;;;0.40;0.40;;;;;;;12.91;42.66;100790.09;5075530;28;20085;-69
2021/04/12 06:25:03;;;;;;;2.87;0.70;;;;;;;13.14;42.31;100805.34;5072932;28;20490;-73
2021/04/12 06:27:50;;;;;;;1.02;1.02;;;;;;;13.06;41.92;100808.78;5074418;28;20049;-73
2021/04/12 06:30:38;;;;;;;1.80;0.50;;;;;;;13.04;41.72;100806.25;5076153;28;20052;-70
2021/04/12 06:33:29;;;;;;;0.40;0.40;;;;;;;13.02;41.66;100808.53;5073668;28;20048;-71
2021/04/12 06:36:07;;;;;;;2.50;0.40;;;;;;;13.27;41.54;100798.28;5081318;28;20130;-70
2021/04/12 06:39:07;;;;;;;0.40;0.40;;;;;;;13.25;41.45;100806.16;5078517;28;20048;-71
2021/04/12 06:42:04;;;;;;;1.53;0.33;;;;;;;13.04;41.39;100808.22;5079011;28;20457;-71
2021/04/12 06:45:00;;;;;;;2.57;0.67;;;;;;;13.09;41.05;100801.75;5080467;28;20044;-71
2021/04/12 06:47:47;;;;;;;2.50;0.40;;;;;;;13.19;40.87;100799.69;5077284;28;20048;-73
2021/04/12 06:50:16;;;;;;;0.47;0.47;;;;;;;13.37;40.86;100805.78;5074903;28;20051;-71
2021/04/12 06:53:01;;;;;;;0.20;0.20;;;;;;;13.11;40.83;100807.91;5077674;28;20054;-71
2021/04/12 06:55:53;;;;;;;1.80;0.60;;;;;;;13.02;40.61;100811.34;5077788;28;20072;-71
2021/04/12 06:58:51;;;;;;;0.37;0.37;;;;;;;13.03;40.69;100813.00;5079921;28;20545;-71
2021/04/12 07:02:08;;;;;;;2.47;0.63;;;;;;;12.89;40.83;100820.41;5072993;28;20053;-71
2021/04/12 07:04:35;;;;;;;0.40;0.40;;;;;;;12.94;40.92;100823.16;5062420;28;20508;-70
2021/04/12 07:07:46;;;;;;;1.80;0.50;;;;;;;12.87;40.96;100807.78;5080351;28;20056;-72
2021/04/12 07:10:18;;;;;;;2.67;0.40;;;;;;;12.99;40.96;100820.34;5078025;28;20040;-70
2021/04/12 07:13:11;;;;;;;0.40;0.40;;;;;;;13.00;40.86;100822.00;5083026;28;20234;-68
2021/04/12 07:15:58;;;;;;;0.50;0.50;;;;;;;12.96;40.93;100820.91;5079315;28;20048;-68
2021/04/12 07:18:34;;;;;;;4.83;0.60;;;;;;;13.07;41.04;100812.44;5079412;28;20044;-70
2021/04/12 07:21:39;;;;;;;0.40;0.40;;;;;;;13.10;40.78;100823.06;5076722;28;20049;-70
2021/04/12 07:24:20;;;;;;;0.93;0.50;;;;;;;12.98;40.39;100818.63;5063970;28;20386;-70
2021/04/12 07:27:11;;;;;;;0.83;0.70;;;;;;;13.03;40.59;100815.81;5078669;28;20811;-68
2021/04/12 07:30:06;;;;;;;1.20;0.60;;;;;;;13.24;40.37;100827.75;5078498;28;20043;-69
2021/04/12 07:32:58;;;;;;;5.17;0.60;;;;;;;13.46;40.19;100824.47;5084120;28;20044;-67
2021/04/12 07:35:35;;;;;;;0.40;0.40;;;;;;;13.38;39.82;100827.09;5079282;28;20058;-67
2021/04/12 07:38:28;;;;;;;0.93;0.60;;;;;;;13.53;39.33;100835.38;5077670;28;20060;-66
2021/04/12 07:41:30;;;;;;;0.80;0.67;;;;;;;13.27;39.57;100843.16;5080454;28;20063;-69
2021/04/12 07:44:33;;;;;;;0.53;0.40;;;;;;;13.44;39.59;100821.16;5076951;28;20047;-68
2021/04/12 07:47:37;;;;;;;1.60;0.60;;;;;;;13.51;39.48;100843.25;5081568;28;20047;-68
2021/04/12 07:50:48;;;;;;;2.57;0.87;;;;;;;13.57;38.85;100841.22;5077863;28;20075;-67
2021/04/12 07:53:17;;;;;;;0.87;0.40;;;;;;;13.65;38.71;100840.63;5072237;28;20063;-65
2021/04/12 07:55:44;;;;;;;0.30;0.30;;;;;;;13.86;38.17;100844.91;5075660;28;20040;-70
2021/04/12 07:58:37;;;;;;;0.87;0.50;;;;;;;14.04;38.02;100840.50;5074477;28;20056;-68
2021/04/12 08:01:22;;;;;;;0.50;0.50;;;;;;;14.65;37.47;100839.81;5078400;28;20533;-68
2021/04/12 08:04:24;;;;;;;2.47;0.90;;;;;;;14.79;37.23;100833.47;5074841;28;20048;-66
2021/04/12 08:07:21;;;;;;;3.07;0.77;;;;;;;14.67;36.72;100845.16;5073961;28;20054;-69
2021/04/12 08:10:18;;;;;;;0.40;0.40;;;;;;;14.91;36.25;100842.28;5079009;28;20429;-69
2021/04/12 08:13:03;;;;;;;0.40;0.40;;;;;;;15.13;35.77;100844.50;5074118;28;20052;-68
2021/04/12 08:16:01;;;;;;;1.20;0.80;;;;;;;15.59;35.60;100855.88;5076315;28;20446;-69
2021/04/12 08:18:33;;;;;;;1.17;0.50;;;;;;;16.03;34.66;100862.16;5076894;28;20048;-68
2021/04/12 08:21:33;;;;;;;0.33;0.33;;;;;;;16.15;34.46;100872.97;5079885;28;20524;-67
2021/04/12 08:24:21;;;;;;;1.57;1.00;;;;;;;16.14;33.89;100863.69;5076111;28;20048;-67
2021/04/12 08:27:25;;;;;;;3.90;0.70;;;;;;;16.13;34.14;100867.63;5081543;28;20055;-69
2021/04/12 08:30:25;;;;;;;1.77;1.13;;;;;;;16.18;34.20;100877.97;5073039;28;20040;-69
2021/04/12 08:33:09;;;;;;;;;;;;;;;15.95;34.00;100876.97;5079051;28;20059;-68
2021/04/12 08:35:51;;;;;;;1.90;1.07;;;;;;;15.93;34.04;100879.25;5079196;28;19919;-69
2021/04/12 08:38:51;;;;;;;1.43;1.07;;;;;;;15.87;33.99;100892.59;5080177;28;20062;-68
2021/04/12 08:41:39;;;;;;;3.90;1.30;;;;;;;15.94;34.22;100889.41;5077214;28;20048;-69
2021/04/12 08:44:30;;;;;;;1.60;1.33;;;;;;;15.90;33.69;100905.22;5082363;28;20078;-68
2021/04/12 08:47:31;;;;;;;8.40;0.97;;;;;;;15.96;33.86;100890.75;5075099;28;20054;-75
2021/04/12 08:50:45;;;;;;;3.33;0.80;;;;;;;16.28;33.68;100908.78;5081140;28;20054;-75
2021/04/12 08:53:15;;;;;;;0.93;0.60;;;;;;;16.16;33.33;100892.34;5075252;28;20059;-74
2021/04/12 08:56:09;;;;;;;1.98;0.68;;;;;;;16.25;33.35;100924.31;5076764;28;20044;-74
2021/04/12 08:59:05;;;;;;;0.70;0.70;;;;;;;16.30;33.40;100896.03;5076204;28;20048;-75
2021/04/12 09:02:06;;;;;;;3.30;1.23;;;;;;;15.99;33.63;100901.38;5079484;28;20145;-76
2021/04/12 09:04:59;;;;;;;1.70;1.37;;;;;;;16.04;33.66;100898.50;5077798;28;20441;-75
2021/04/12 09:07:28;;;;;;;1.03;0.90;;;;;;;16.62;33.86;100908.41;5075707;28;20047;-72
2021/04/12 09:10:19;;;;;;;0.80;0.80;;;;;;;17.04;33.24;100912.06;5077233;28;20135;-76
2021/04/12 09:12:48;;;;;;;3.23;1.07;;;;;;;17.32;32.68;100910.03;5075775;28;20048;-73
2021/04/12 09:15:45;;;;;;;3.23;0.90;;;;;;;17.38;32.21;100927.69;5076938;28;20046;-73
2021/04/12 09:18:38;;;;;;;1.73;0.90;;;;;;;17.75;31.78;100904.75;5075582;28;20048;-73
2021/04/12 09:21:42;;;;;;;1.10;0.57;;;;;;;17.77;31.59;100910.94;5075762;28;20056;-73
2021/04/12 09:24:33;;;;;;;2.17;0.80;;;;;;;18.32;31.44;100908.97;5079574;28;20127;-74
2021/04/12 09:27:28;;;;;;;1.13;1.00;;;;;;;18.79;31.17;100912.22;5076834;28;20412;-73
2021/04/12 09:30:16;;;;;;;1.02;0.52;;;;;;;18.59;30.13;100914.44;5080241;28;20325;-72
2021/04/12 09:32:54;;;;;;;2.83;0.77;;;;;;;18.66;30.30;100919.63;5073788;28;20063;-74
2021/04/12 09:35:39;;;;;;;1.70;0.70;;;;;;;18.29;30.82;100921.78;5077276;28;20048;-72
2021/04/12 09:38:30;;;;;;;2.05;0.68;;;;;;;17.83;31.08;100919.31;5071818;28;20060;-76
2021/04/12 09:41:22;;;;;;;0.77;0.68;;;;;;;17.23;30.87;100955.13;5078090;28;20392;-74
2021/04/12 09:44:08;;;;;;;1.20;1.10;;;;;;;16.65;32.16;100935.97;5078475;28;20135;-74
2021/04/12 09:46:53;;;;;;;0.93;0.70;;;;;;;16.36;32.75;100916.50;5078035;28;20181;-73
2021/04/12 09:49:48;;;;;;;0.77;0.70;;;;;;;16.34;33.19;100914.03;5072424;28;20052;-73
2021/04/12 09:52:39;;;;;;;0.47;0.47;;;;;;;16.89;32.96;100923.66;5078617;28;20536;-73
2021/04/12 09:55:24;;;;;;;0.80;0.80;;;;;;;16.81;32.91;100933.69;5077916;28;20044;-75
2021/04/12 09:57:53;;;;;;;0.97;0.93;;;;;;;16.66;32.94;100923.53;5078475;28;20040;-76
2021/04/12 10:00:57;;;;;;;1.00;0.60;;;;;;;16.99;32.48;100934.72;5082705;28;20389;-76
2021/04/12 10:03:43;;;;;;;1.67;0.93;;;;;;;17.03;32.03;100941.44;5059897;28;20052;-75
2021/04/12 10:06:36;;;;;;;0.50;0.50;;;;;;;16.88;32.38;100944.56;5076101;28;20415;-75
2021/04/12 10:09:40;;;;;;;0.77;0.73;;;;;;;16.77;32.44;100922.22;5078329;28;20117;-75
2021/04/12 10:12:42;;;;;;;2.80;1.57;;;;;;;16.66;32.74;100909.44;5083545;28;20089;-75
2021/04/12 10:15:35;;;;;;;2.00;0.70;;;;;;;16.44;33.44;100949.59;5074259;28;20051;-75
2021/04/12 10:18:39;;;;;;;0.73;0.73;;;;;;;16.28;33.78;100920.88;5071995;28;20045;-70
2021/04/12 10:21:21;;;;;;;3.80;1.00;;;;;;;16.42;34.05;100925.72;5076954;28;20052;-72
2021/04/12 10:24:17;;;;;;;2.50;1.50;;;;;;;16.51;33.87;100918.19;5081615;28;20044;-70
2021/04/12 10:26:48;;;;;;;0.57;0.57;;;;;;;16.16;33.74;100908.44;5082049;28;20407;-69
2021/04/12 10:29:44;;;;;;;1.03;0.70;;;;;;;15.92;34.12;100934.75;5076726;28;20040;-70
2021/04/12 10:32:17;;;;;;;1.13;0.43;;;;;;;16.17;34.30;100918.56;5082678;28;20043;-70
2021/04/12 10:35:09;;;;;;;4.10;1.03;;;;;;;16.30;34.32;100923.38;5073803;28;20048;-71
2021/04/12 10:37:59;;;;;;;1.20;0.97;;;;;;;16.23;34.10;100918.16;5078131;28;20049;-71
2021/04/12 10:40:44;;;;;;;0.63;0.40;;;;;;;16.32;34.02;100941.66;5077297;28;20048;-69
2021/04/12 10:44:19;;;;;;;0.50;0.50;;;;;;;16.22;33.97;100922.13;5079127;28;20067;-70
2021/04/12 10:47:10;;;;;;;0.30;0.30;;;;;;;16.59;33.90;100915.50;5074422;28;20415;-71
2021/04/12 10:49:46;;;;;;;3.30;0.70;;;;;;;16.84;33.55;100933.06;5081985;28;20052;-71
2021/04/12 10:52:21;;;;;;;0.70;0.70;;;;;;;16.99;33.18;100931.91;5078975;28;20051;-70
2021/04/12 10:55:03;;;;;;;1.50;0.70;;;;;;;17.05;33.35;100945.59;5079161;28;20044;-71
2021/04/12 10:58:01;;;;;;;3.90;1.27;;;;;;;17.11;32.54;100918.13;5075386;28;20058;-70
2021/04/12 11:00:43;;;;;;;0.93;0.90;;;;;;;17.13;32.68;100878.28;5059789;28;20131;-69
2021/04/12 11:03:28;;;;;;;1.52;1.42;;;;;;;18.02;32.28;100925.59;5078362;28;20126;-69
2021/04/12 11:06:07;;;;;;;0.60;0.60;;;;;;;18.28;31.64;100910.78;5078697;28;20127;-69
2021/04/12 11:08:56;;;;;;;1.80;1.27;;;;;;;17.94;31.53;100906.56;5084508;28;20040;-69
2021/04/12 11:11:44;;;;;;;3.88;1.00;;;;;;;17.88;32.22;100905.03;5074415;28;20040;-68
2021/04/12 11:14:14;;;;;;;0.73;0.73;;;;;;;17.99;32.03;100903.63;5076911;28;20079;-70
2021/04/12 11:17:21;;;;;;;2.65;1.08;;;;;;;18.07;31.52;100885.91;5080829;28;20055;-68
2021/04/12 11:19:54;;;;;;;0.98;0.82;;;;;;;18.14;31.46;100911.69;5074375;28;20054;-68
2021/04/12 11:22:32;;;;;;;2.28;0.65;;;;;;;18.05;31.34;100924.09;5079775;28;20534;-66
2021/04/12 11:25:06;;;;;;;1.25;1.15;;;;;;;17.97;31.48;100920.91;5083706;28;20044;-66
2021/04/12 11:27:39;;;;;;;1.17;1.02;;;;;;;18.07;31.66;100908.50;5083511;28;20094;-66
2021/04/12 11:30:24;;;;;;;1.27;1.05;;;;;;;18.14;31.72;100934.31;5076281;28;20499;-65
2021/04/12 11:33:14;;;;;;;2.47;1.02;;;;;;;18.16;31.86;100891.59;5079850;28;20102;-64
2021/04/12 11:35:52;;;;;;;1.67;0.90;;;;;;;18.55;31.54;100935.22;5071879;28;20061;-65
2021/04/12 11:38:27;;;;;;;5.80;1.10;;;;;;;18.46;31.35;100906.88;5074731;28;20084;-64
2021/04/12 11:41:23;;;;;;;2.85;1.17;;;;;;;18.63;31.23;100907.00;5075820;28;20182;-66
2021/04/12 11:43:55;;;;;;;0.60;0.60;;;;;;;18.74;30.82;100889.75;5081348;28;20044;-66
2021/04/12 11:46:52;;;;;;;0.95;0.65;;;;;;;19.04;30.95;100888.84;5073706;28;20049;-65
2021/04/12 11:49:29;;;;;;;;;;;;;;;19.20;30.76;100923.16;5077764;28;20051;-66
2021/04/12 11:52:29;;;;;;;0.73;0.73;;;;;;;19.38;30.01;100881.53;5077710;28;19935;-65
2021/04/12 11:55:11;;;;;;;;;;;;;;;19.65;29.72;100894.56;5080576;28;20040;-66
2021/04/12 11:58:02;;;;;;;0.88;0.70;;;;;;;20.21;29.61;100900.34;5077661;28;19953;-65
2021/04/12 12:00:31;;;;;;;4.80;1.42;;;;;;;20.06;29.01;100888.34;5082923;28;20104;-64
2021/04/12 12:03:07;;;;;;;3.17;1.27;;;;;;;20.46;29.46;100885.25;5075704;28;20131;-65
2021/04/12 12:05:38;;;;;;;0.90;0.80;;;;;;;20.57;29.21;100891.41;5077209;28;20666;-67
2021/04/12 12:08:18;;;;;;;1.52;0.95;;;;;;;20.33;29.06;100887.13;5081757;28;20052;-66
2021/04/12 12:11:08;;;;;;;3.97;1.95;;;;;;;19.96;29.54;100896.38;5074672;28;20056;-67
2021/04/12 12:14:13;;;;;;;4.65;1.02;;;;;;;19.83;30.06;100909.59;5079075;28;20060;-67
2021/04/12 12:16:43;;;;;;;0.75;0.70;;;;;;;19.52;30.34;100913.41;5082132;28;20060;-66
2021/04/12 12:19:31;;;;;;;0.50;0.50;;;;;;;19.37;30.35;100906.19;5079689;28;20052;-66
2021/04/12 12:22:32;;;;;;;0.57;0.50;;;;;;;19.00;31.01;100887.81;5076444;28;20382;-65
2021/04/12 12:25:42;;;;;;;1.75;0.80;;;;;;;18.65;31.80;100896.16;5074325;28;20056;-66
2021/04/12 12:28:32;;;;;;;3.83;0.80;;;;;;;18.53;32.49;100904.44;5077078;28;20051;-65
2021/04/12 12:31:31;;;;;;;1.90;1.00;;;;;;;18.53;32.50;100901.63;5076654;28;20098;-66
2021/04/12 12:34:12;;;;;;;5.28;0.95;;;;;;;18.63;32.64;100898.50;5079217;28;20048;-66
2021/04/12 12:36:57;;;;;;;;;;;;;;;18.53;32.76;100906.41;5081301;28;20055;-65
2021/04/12 12:39:51;;;;;;;0.80;0.80;;;;;;;18.53;32.74;100893.13;5078642;28;20043;-66
2021/04/12 12:42:31;;;;;;;1.42;0.80;;;;;;;18.42;33.20;100897.38;5081112;28;20078;-65
2021/04/12 12:45:17;;;;;;;;;;;;;;;18.32;33.58;100900.50;5086467;28;20045;-65
2021/04/12 12:47:48;;;;;;;1.55;1.38;;;;;;;18.24;34.04;100908.59;5079747;28;20266;-65
2021/04/12 12:50:21;;;;;;;0.60;0.52;;;;;;;18.00;33.95;100888.34;5082642;28;20516;-66
2021/04/12 12:53:01;;;;;;;1.65;1.00;;;;;;;17.99;34.29;100896.00;5073364;28;20059;-65
2021/04/12 12:55:33;;;;;;;5.90;1.42;;;;;;;18.22;33.84;100899.63;5078112;28;20076;-65
2021/04/12 12:58:09;;;;;;;0.70;0.60;;;;;;;18.09;34.21;100883.59;5076530;28;20092;-66
2021/04/12 13:00:41;;;;;;;1.20;0.80;;;;;;;18.12;34.42;100899.91;5080640;28;20067;-66